Mariner A — 9HVA7 — position and weather

sailwx.info

Track history (hours):
 
Tides and Currents Weather Stations Pressure Air Temp Water Temp Dewpoint Dewpoint Depression Visibility Wind Speed Wind Dir Waves Ship Positions

Mariner A

Last reported at 2015-Aug-27 22:14 UTC. Time now 2015-Aug-28 22:18 UTC.
Position N 33°26' E 033°14'.

Length 176 m; draft 9.3 m.

Type: Tanker. MMSI: 215817000.

Date/timePositionNaut miles runAvg speedWind from/ knotsBaromVisibWave heightAir tempDewpointWater temp
2015-Aug-27 22:14N 33°26' E 033°14'1013.3
2015-Aug-27 21:30N 33°22' E 033°24'1313.3
2015-Aug-27 20:33N 33°16' E 033°38'  
2015-Aug-24 16:27N 33°55' E 034°25'5313.4
2015-Aug-24 12:30N 34°48' E 034°35'  
2015-Aug-21 02:31N 34°48' E 034°31'1313.3
2015-Aug-21 01:33N 34°35' E 034°27'1313.3
2015-Aug-21 00:33N 34°22' E 034°24'1313.4
2015-Aug-20 23:33N 34°09' E 034°21'1413.5
2015-Aug-20 22:31N 33°56' E 034°17'1713.3
2015-Aug-20 21:15N 33°39' E 034°13'913.2
2015-Aug-20 20:33N 33°30' E 034°10'1713.1
2015-Aug-20 19:13N 33°13' E 034°07'1413.2
2015-Aug-20 18:10N 32°59' E 034°05'913.1
2015-Aug-20 17:30N 32°50' E 034°05'3812.6
2015-Aug-20 14:28N 32°12' E 034°09'1112.6
2015-Aug-20 13:33N 32°01' E 034°12'  
Track history (hours):
 
Tides and Currents Weather Stations Pressure Air Temp Water Temp Dewpoint Dewpoint Depression Visibility Wind Speed Wind Dir Waves Ship Positions

Mariner A

Last reported at 2015-Aug-27 22:14 UTC. Time now 2015-Aug-28 22:18 UTC.
Position N 33°26' E 033°14'.

Length 176 m; draft 9.3 m.

Type: Tanker. MMSI: 215817000.

Date/timePositionNaut miles runAvg speedWind from/ knotsBaromVisibWave heightAir tempDewpointWater temp
2015-Aug-27 22:14N 33°26' E 033°14'1013.3
2015-Aug-27 21:30N 33°22' E 033°24'1313.3
2015-Aug-27 20:33N 33°16' E 033°38'  
2015-Aug-24 16:27N 33°55' E 034°25'5313.4
2015-Aug-24 12:30N 34°48' E 034°35'  
2015-Aug-21 02:31N 34°48' E 034°31'1313.3
2015-Aug-21 01:33N 34°35' E 034°27'1313.3
2015-Aug-21 00:33N 34°22' E 034°24'1313.4
2015-Aug-20 23:33N 34°09' E 034°21'1413.5
2015-Aug-20 22:31N 33°56' E 034°17'1713.3
2015-Aug-20 21:15N 33°39' E 034°13'913.2
2015-Aug-20 20:33N 33°30' E 034°10'1713.1
2015-Aug-20 19:13N 33°13' E 034°07'1413.2
2015-Aug-20 18:10N 32°59' E 034°05'913.1
2015-Aug-20 17:30N 32°50' E 034°05'3812.6
2015-Aug-20 14:28N 32°12' E 034°09'1112.6
2015-Aug-20 13:33N 32°01' E 034°12'  

Dump ship's entire track history